sensor_id;sensor_type;location;lat;lon;timestamp;temperature;humidity
51029;DHT22;37054;52.054;8.600;2023-07-20T00:01:05;21.20;70.00
51029;DHT22;37054;52.054;8.600;2023-07-20T00:03:31;21.20;69.90
51029;DHT22;37054;52.054;8.600;2023-07-20T00:05:56;21.10;69.80
51029;DHT22;37054;52.054;8.600;2023-07-20T00:08:22;21.10;69.70
51029;DHT22;37054;52.054;8.600;2023-07-20T00:10:47;21.00;69.40
51029;DHT22;37054;52.054;8.600;2023-07-20T00:13:12;20.90;69.30
51029;DHT22;37054;52.054;8.600;2023-07-20T00:15:38;20.80;69.10
51029;DHT22;37054;52.054;8.600;2023-07-20T00:18:04;20.80;68.80
51029;DHT22;37054;52.054;8.600;2023-07-20T00:20:29;20.70;68.40
51029;DHT22;37054;52.054;8.600;2023-07-20T00:22:55;20.50;68.20
51029;DHT22;37054;52.054;8.600;2023-07-20T00:25:23;20.50;67.90
51029;DHT22;37054;52.054;8.600;2023-07-20T00:27:48;20.30;67.70
51029;DHT22;37054;52.054;8.600;2023-07-20T00:30:14;20.30;67.90
51029;DHT22;37054;52.054;8.600;2023-07-20T00:32:41;20.20;68.20
51029;DHT22;37054;52.054;8.600;2023-07-20T00:35:06;20.20;68.50
51029;DHT22;37054;52.054;8.600;2023-07-20T00:37:32;20.10;68.60
51029;DHT22;37054;52.054;8.600;2023-07-20T00:39:57;20.10;68.80
51029;DHT22;37054;52.054;8.600;2023-07-20T00:42:23;20.10;69.00
51029;DHT22;37054;52.054;8.600;2023-07-20T00:44:48;20.10;69.20
51029;DHT22;37054;52.054;8.600;2023-07-20T00:47:14;20.10;69.40
51029;DHT22;37054;52.054;8.600;2023-07-20T00:49:39;20.10;69.60
51029;DHT22;37054;52.054;8.600;2023-07-20T00:52:06;20.10;69.80
51029;DHT22;37054;52.054;8.600;2023-07-20T00:54:31;20.10;69.90
51029;DHT22;37054;52.054;8.600;2023-07-20T00:56:57;20.20;69.90
51029;DHT22;37054;52.054;8.600;2023-07-20T00:59:24;20.20;69.80
51029;DHT22;37054;52.054;8.600;2023-07-20T01:01:49;20.20;69.80
51029;DHT22;37054;52.054;8.600;2023-07-20T01:04:15;20.10;69.70
51029;DHT22;37054;52.054;8.600;2023-07-20T01:09:29;20.10;69.40
51029;DHT22;37054;52.054;8.600;2023-07-20T01:14:31;20.00;69.30
51029;DHT22;37054;52.054;8.600;2023-07-20T01:16:57;20.00;69.30
51029;DHT22;37054;52.054;8.600;2023-07-20T01:19:23;20.00;69.20
51029;DHT22;37054;52.054;8.600;2023-07-20T01:27:25;19.90;69.00
51029;DHT22;37054;52.054;8.600;2023-07-20T01:30:07;19.90;69.50
51029;DHT22;37054;52.054;8.600;2023-07-20T01:32:35;19.90;69.90
51029;DHT22;37054;52.054;8.600;2023-07-20T01:35:02;20.00;70.00
51029;DHT22;37054;52.054;8.600;2023-07-20T01:37:28;20.00;70.00
51029;DHT22;37054;52.054;8.600;2023-07-20T01:39:55;20.10;70.10
51029;DHT22;37054;52.054;8.600;2023-07-20T01:42:21;20.10;70.10
51029;DHT22;37054;52.054;8.600;2023-07-20T01:44:47;20.20;70.20
51029;DHT22;37054;52.054;8.600;2023-07-20T01:47:13;20.20;70.20
51029;DHT22;37054;52.054;8.600;2023-07-20T01:49:38;20.20;70.20
51029;DHT22;37054;52.054;8.600;2023-07-20T01:52:04;20.30;70.20
51029;DHT22;37054;52.054;8.600;2023-07-20T01:54:29;20.30;70.10
51029;DHT22;37054;52.054;8.600;2023-07-20T01:56:55;20.30;70.10
51029;DHT22;37054;52.054;8.600;2023-07-20T01:59:20;20.30;70.10
51029;DHT22;37054;52.054;8.600;2023-07-20T02:01:46;20.30;70.00
51029;DHT22;37054;52.054;8.600;2023-07-20T02:04:11;20.30;70.00
51029;DHT22;37054;52.054;8.600;2023-07-20T02:06:37;20.30;69.90
51029;DHT22;37054;52.054;8.600;2023-07-20T02:09:03;20.30;69.90
51029;DHT22;37054;52.054;8.600;2023-07-20T02:11:29;20.30;69.90
51029;DHT22;37054;52.054;8.600;2023-07-20T02:13:54;20.30;69.80
51029;DHT22;37054;52.054;8.600;2023-07-20T02:16:20;20.30;69.90
51029;DHT22;37054;52.054;8.600;2023-07-20T02:18:45;20.30;70.10
51029;DHT22;37054;52.054;8.600;2023-07-20T02:21:11;20.40;70.20
51029;DHT22;37054;52.054;8.600;2023-07-20T02:23:36;20.40;70.30
51029;DHT22;37054;52.054;8.600;2023-07-20T02:26:01;20.50;70.40
51029;DHT22;37054;52.054;8.600;2023-07-20T02:28:27;20.60;70.40
51029;DHT22;37054;52.054;8.600;2023-07-20T02:30:52;20.60;70.50
51029;DHT22;37054;52.054;8.600;2023-07-20T02:33:18;20.70;70.30
51029;DHT22;37054;52.054;8.600;2023-07-20T02:35:45;20.70;70.40
51029;DHT22;37054;52.054;8.600;2023-07-20T02:38:10;20.70;70.30
51029;DHT22;37054;52.054;8.600;2023-07-20T02:40:36;20.70;70.10
51029;DHT22;37054;52.054;8.600;2023-07-20T02:43:01;20.70;70.00
51029;DHT22;37054;52.054;8.600;2023-07-20T02:45:27;20.70;69.90
51029;DHT22;37054;52.054;8.600;2023-07-20T02:47:52;20.70;69.90
51029;DHT22;37054;52.054;8.600;2023-07-20T02:50:17;20.70;69.80
51029;DHT22;37054;52.054;8.600;2023-07-20T02:52:43;20.70;69.80
51029;DHT22;37054;52.054;8.600;2023-07-20T02:55:09;20.70;69.70
51029;DHT22;37054;52.054;8.600;2023-07-20T02:57:34;20.60;69.50
51029;DHT22;37054;52.054;8.600;2023-07-20T03:00:01;20.60;69.30
51029;DHT22;37054;52.054;8.600;2023-07-20T03:02:29;20.50;69.20
51029;DHT22;37054;52.054;8.600;2023-07-20T03:04:55;20.50;69.00
51029;DHT22;37054;52.054;8.600;2023-07-20T03:07:22;20.40;68.90
51029;DHT22;37054;52.054;8.600;2023-07-20T03:09:48;20.40;69.10
51029;DHT22;37054;52.054;8.600;2023-07-20T03:12:13;20.30;69.50
51029;DHT22;37054;52.054;8.600;2023-07-20T03:14:39;20.40;69.80
51029;DHT22;37054;52.054;8.600;2023-07-20T03:17:04;20.40;70.00
51029;DHT22;37054;52.054;8.600;2023-07-20T03:19:30;20.50;69.80
51029;DHT22;37054;52.054;8.600;2023-07-20T03:21:55;20.50;69.70
51029;DHT22;37054;52.054;8.600;2023-07-20T03:24:21;20.50;69.90
51029;DHT22;37054;52.054;8.600;2023-07-20T03:26:46;20.50;70.00
51029;DHT22;37054;52.054;8.600;2023-07-20T03:29:11;20.50;70.00
51029;DHT22;37054;52.054;8.600;2023-07-20T03:31:37;20.50;70.20
51029;DHT22;37054;52.054;8.600;2023-07-20T03:34:02;20.60;70.00
51029;DHT22;37054;52.054;8.600;2023-07-20T03:36:28;20.60;69.80
51029;DHT22;37054;52.054;8.600;2023-07-20T03:38:53;20.50;69.40
51029;DHT22;37054;52.054;8.600;2023-07-20T03:41:19;20.50;69.60
51029;DHT22;37054;52.054;8.600;2023-07-20T03:43:45;20.40;69.20
51029;DHT22;37054;52.054;8.600;2023-07-20T03:46:10;20.20;68.70
51029;DHT22;37054;52.054;8.600;2023-07-20T03:48:36;20.00;68.70
51029;DHT22;37054;52.054;8.600;2023-07-20T03:51:01;19.80;68.80
51029;DHT22;37054;52.054;8.600;2023-07-20T03:53:27;19.70;69.00
51029;DHT22;37054;52.054;8.600;2023-07-20T03:55:52;19.40;68.80
51029;DHT22;37054;52.054;8.600;2023-07-20T03:58:18;19.20;69.30
51029;DHT22;37054;52.054;8.600;2023-07-20T04:00:48;19.10;69.70
51029;DHT22;37054;52.054;8.600;2023-07-20T04:03:14;19.00;69.90
51029;DHT22;37054;52.054;8.600;2023-07-20T04:05:39;19.00;70.30
51029;DHT22;37054;52.054;8.600;2023-07-20T04:08:05;18.90;70.50
51029;DHT22;37054;52.054;8.600;2023-07-20T04:10:30;18.90;70.60
51029;DHT22;37054;52.054;8.600;2023-07-20T04:12:56;18.90;70.80
51029;DHT22;37054;52.054;8.600;2023-07-20T04:15:21;19.00;71.10
51029;DHT22;37054;52.054;8.600;2023-07-20T04:17:47;19.00;71.20
51029;DHT22;37054;52.054;8.600;2023-07-20T04:20:12;19.10;70.90
51029;DHT22;37054;52.054;8.600;2023-07-20T04:22:38;19.00;70.70
51029;DHT22;37054;52.054;8.600;2023-07-20T04:25:03;19.00;70.60
51029;DHT22;37054;52.054;8.600;2023-07-20T04:27:29;19.00;70.80
51029;DHT22;37054;52.054;8.600;2023-07-20T04:29:55;19.00;70.90
51029;DHT22;37054;52.054;8.600;2023-07-20T04:32:21;19.00;71.00
51029;DHT22;37054;52.054;8.600;2023-07-20T04:34:46;19.00;71.10
51029;DHT22;37054;52.054;8.600;2023-07-20T04:37:12;19.10;71.10
51029;DHT22;37054;52.054;8.600;2023-07-20T04:39:37;19.00;71.10
51029;DHT22;37054;52.054;8.600;2023-07-20T04:42:03;19.10;71.00
51029;DHT22;37054;52.054;8.600;2023-07-20T04:44:28;19.00;70.90
51029;DHT22;37054;52.054;8.600;2023-07-20T04:46:54;19.00;71.00
51029;DHT22;37054;52.054;8.600;2023-07-20T04:49:19;19.00;71.10
51029;DHT22;37054;52.054;8.600;2023-07-20T04:51:45;19.00;71.20
51029;DHT22;37054;52.054;8.600;2023-07-20T04:54:11;19.00;71.20
51029;DHT22;37054;52.054;8.600;2023-07-20T04:56:36;19.00;71.20
51029;DHT22;37054;52.054;8.600;2023-07-20T04:59:01;19.10;71.30
51029;DHT22;37054;52.054;8.600;2023-07-20T05:01:27;19.10;71.20
51029;DHT22;37054;52.054;8.600;2023-07-20T05:03:53;19.20;71.50
51029;DHT22;37054;52.054;8.600;2023-07-20T05:06:18;19.30;71.60
51029;DHT22;37054;52.054;8.600;2023-07-20T05:08:44;19.40;71.60
51029;DHT22;37054;52.054;8.600;2023-07-20T05:11:10;19.50;71.50
51029;DHT22;37054;52.054;8.600;2023-07-20T05:13:36;19.60;71.70
51029;DHT22;37054;52.054;8.600;2023-07-20T05:16:01;19.70;71.60
51029;DHT22;37054;52.054;8.600;2023-07-20T05:18:27;19.80;71.30
51029;DHT22;37054;52.054;8.600;2023-07-20T05:20:52;19.80;71.60
51029;DHT22;37054;52.054;8.600;2023-07-20T05:23:20;19.90;71.60
51029;DHT22;37054;52.054;8.600;2023-07-20T05:25:46;19.90;71.50
51029;DHT22;37054;52.054;8.600;2023-07-20T05:28:11;20.00;71.40
51029;DHT22;37054;52.054;8.600;2023-07-20T05:30:37;20.00;71.30
51029;DHT22;37054;52.054;8.600;2023-07-20T05:33:02;20.00;71.40
51029;DHT22;37054;52.054;8.600;2023-07-20T05:35:27;20.10;71.30
51029;DHT22;37054;52.054;8.600;2023-07-20T05:37:53;20.20;71.30
51029;DHT22;37054;52.054;8.600;2023-07-20T05:40:18;20.20;71.50
51029;DHT22;37054;52.054;8.600;2023-07-20T05:42:48;20.30;71.50
51029;DHT22;37054;52.054;8.600;2023-07-20T05:45:15;20.30;71.40
51029;DHT22;37054;52.054;8.600;2023-07-20T05:47:43;20.40;71.30
51029;DHT22;37054;52.054;8.600;2023-07-20T05:50:09;20.40;71.60
51029;DHT22;37054;52.054;8.600;2023-07-20T05:52:35;20.50;71.70
51029;DHT22;37054;52.054;8.600;2023-07-20T05:55:02;20.60;71.80
51029;DHT22;37054;52.054;8.600;2023-07-20T05:57:28;20.70;71.70
51029;DHT22;37054;52.054;8.600;2023-07-20T05:59:53;20.70;71.50
51029;DHT22;37054;52.054;8.600;2023-07-20T06:02:19;20.80;71.50
51029;DHT22;37054;52.054;8.600;2023-07-20T06:04:44;20.90;71.40
51029;DHT22;37054;52.054;8.600;2023-07-20T06:07:10;20.90;71.40
51029;DHT22;37054;52.054;8.600;2023-07-20T06:09:35;21.00;71.40
51029;DHT22;37054;52.054;8.600;2023-07-20T06:12:01;21.00;71.50
51029;DHT22;37054;52.054;8.600;2023-07-20T06:14:26;21.10;71.60
51029;DHT22;37054;52.054;8.600;2023-07-20T06:16:52;21.10;71.70
51029;DHT22;37054;52.054;8.600;2023-07-20T06:19:17;21.10;71.50
51029;DHT22;37054;52.054;8.600;2023-07-20T06:21:43;21.20;71.50
51029;DHT22;37054;52.054;8.600;2023-07-20T06:24:09;21.40;72.00
51029;DHT22;37054;52.054;8.600;2023-07-20T06:26:34;21.70;72.50
51029;DHT22;37054;52.054;8.600;2023-07-20T06:29:05;22.20;73.00
51029;DHT22;37054;52.054;8.600;2023-07-20T06:31:31;22.90;73.70
51029;DHT22;37054;52.054;8.600;2023-07-20T06:33:57;23.60;73.60
51029;DHT22;37054;52.054;8.600;2023-07-20T06:36:22;24.20;72.90
51029;DHT22;37054;52.054;8.600;2023-07-20T06:38:48;24.50;71.70
51029;DHT22;37054;52.054;8.600;2023-07-20T06:41:13;24.70;70.40
51029;DHT22;37054;52.054;8.600;2023-07-20T06:43:39;24.90;71.00
51029;DHT22;37054;52.054;8.600;2023-07-20T06:46:04;25.30;71.80
51029;DHT22;37054;52.054;8.600;2023-07-20T06:48:30;25.90;71.30
51029;DHT22;37054;52.054;8.600;2023-07-20T06:50:55;26.50;70.50
51029;DHT22;37054;52.054;8.600;2023-07-20T06:53:21;27.10;69.70
51029;DHT22;37054;52.054;8.600;2023-07-20T06:55:46;27.40;68.50
51029;DHT22;37054;52.054;8.600;2023-07-20T06:58:11;27.70;68.40
51029;DHT22;37054;52.054;8.600;2023-07-20T07:00:37;28.10;68.00
51029;DHT22;37054;52.054;8.600;2023-07-20T07:03:03;28.50;67.50
51029;DHT22;37054;52.054;8.600;2023-07-20T07:05:28;28.80;66.50
51029;DHT22;37054;52.054;8.600;2023-07-20T07:07:53;29.00;66.50
51029;DHT22;37054;52.054;8.600;2023-07-20T07:10:19;28.90;65.00
51029;DHT22;37054;52.054;8.600;2023-07-20T07:12:44;28.70;65.40
51029;DHT22;37054;52.054;8.600;2023-07-20T07:15:10;28.50;64.30
51029;DHT22;37054;52.054;8.600;2023-07-20T07:17:38;28.20;64.90
51029;DHT22;37054;52.054;8.600;2023-07-20T07:20:04;28.20;65.90
51029;DHT22;37054;52.054;8.600;2023-07-20T07:22:30;28.20;65.80
51029;DHT22;37054;52.054;8.600;2023-07-20T07:24:55;28.30;65.00
51029;DHT22;37054;52.054;8.600;2023-07-20T07:27:21;28.10;63.90
51029;DHT22;37054;52.054;8.600;2023-07-20T07:29:46;28.20;66.60
51029;DHT22;37054;52.054;8.600;2023-07-20T07:32:14;28.50;65.90
51029;DHT22;37054;52.054;8.600;2023-07-20T07:34:40;28.40;63.50
51029;DHT22;37054;52.054;8.600;2023-07-20T07:37:05;28.10;63.30
51029;DHT22;37054;52.054;8.600;2023-07-20T07:39:31;28.20;65.70
51029;DHT22;37054;52.054;8.600;2023-07-20T07:41:56;28.40;64.60
51029;DHT22;37054;52.054;8.600;2023-07-20T07:44:22;28.50;63.10
51029;DHT22;37054;52.054;8.600;2023-07-20T07:46:48;28.50;62.70
51029;DHT22;37054;52.054;8.600;2023-07-20T07:49:14;28.50;62.40
51029;DHT22;37054;52.054;8.600;2023-07-20T07:51:39;28.80;64.60
51029;DHT22;37054;52.054;8.600;2023-07-20T07:54:05;29.40;64.20
51029;DHT22;37054;52.054;8.600;2023-07-20T07:56:30;29.80;64.70
51029;DHT22;37054;52.054;8.600;2023-07-20T07:58:56;29.90;62.90
51029;DHT22;37054;52.054;8.600;2023-07-20T08:01:21;29.80;61.90
51029;DHT22;37054;52.054;8.600;2023-07-20T08:03:47;29.80;61.70
51029;DHT22;37054;52.054;8.600;2023-07-20T08:06:13;30.10;63.70
51029;DHT22;37054;52.054;8.600;2023-07-20T08:08:38;30.70;61.50
51029;DHT22;37054;52.054;8.600;2023-07-20T08:11:04;31.10;57.90
51029;DHT22;37054;52.054;8.600;2023-07-20T08:13:30;31.10;53.00
51029;DHT22;37054;52.054;8.600;2023-07-20T08:15:56;30.80;53.60
51029;DHT22;37054;52.054;8.600;2023-07-20T08:18:21;30.40;50.10
51029;DHT22;37054;52.054;8.600;2023-07-20T08:20:47;30.20;51.40
51029;DHT22;37054;52.054;8.600;2023-07-20T08:23:12;30.20;49.60
51029;DHT22;37054;52.054;8.600;2023-07-20T08:25:39;30.40;52.00
51029;DHT22;37054;52.054;8.600;2023-07-20T08:28:07;31.10;51.50
51029;DHT22;37054;52.054;8.600;2023-07-20T08:30:46;31.70;50.00
51029;DHT22;37054;52.054;8.600;2023-07-20T08:33:15;32.40;49.30
51029;DHT22;37054;52.054;8.600;2023-07-20T08:35:42;32.90;46.90
51029;DHT22;37054;52.054;8.600;2023-07-20T08:38:08;33.60;43.70
51029;DHT22;37054;52.054;8.600;2023-07-20T08:40:34;34.20;45.00
51029;DHT22;37054;52.054;8.600;2023-07-20T08:43:04;34.70;44.00
51029;DHT22;37054;52.054;8.600;2023-07-20T08:45:29;34.70;42.00
51029;DHT22;37054;52.054;8.600;2023-07-20T08:47:58;34.30;41.00
51029;DHT22;37054;52.054;8.600;2023-07-20T08:50:25;34.00;38.70
51029;DHT22;37054;52.054;8.600;2023-07-20T08:52:51;34.00;38.60
51029;DHT22;37054;52.054;8.600;2023-07-20T08:55:17;34.30;37.90
51029;DHT22;37054;52.054;8.600;2023-07-20T08:57:44;34.60;37.70
51029;DHT22;37054;52.054;8.600;2023-07-20T09:00:11;35.00;36.30
51029;DHT22;37054;52.054;8.600;2023-07-20T09:02:39;35.50;35.90
51029;DHT22;37054;52.054;8.600;2023-07-20T09:05:08;35.90;34.10
51029;DHT22;37054;52.054;8.600;2023-07-20T09:07:38;35.60;31.00
51029;DHT22;37054;52.054;8.600;2023-07-20T09:10:04;35.20;32.50
51029;DHT22;37054;52.054;8.600;2023-07-20T09:12:37;34.80;32.60
51029;DHT22;37054;52.054;8.600;2023-07-20T09:15:03;34.50;32.40
51029;DHT22;37054;52.054;8.600;2023-07-20T09:17:29;34.10;32.20
51029;DHT22;37054;52.054;8.600;2023-07-20T09:19:54;33.70;32.20
51029;DHT22;37054;52.054;8.600;2023-07-20T09:22:20;33.60;32.30
51029;DHT22;37054;52.054;8.600;2023-07-20T09:24:46;33.90;34.00
51029;DHT22;37054;52.054;8.600;2023-07-20T09:27:11;34.60;34.50
51029;DHT22;37054;52.054;8.600;2023-07-20T09:29:50;35.30;33.10
51029;DHT22;37054;52.054;8.600;2023-07-20T09:32:19;35.80;30.20
51029;DHT22;37054;52.054;8.600;2023-07-20T09:34:46;35.70;28.40
51029;DHT22;37054;52.054;8.600;2023-07-20T09:37:11;35.30;28.30
51029;DHT22;37054;52.054;8.600;2023-07-20T09:39:46;34.90;29.70
51029;DHT22;37054;52.054;8.600;2023-07-20T09:42:12;34.70;30.50
51029;DHT22;37054;52.054;8.600;2023-07-20T09:44:38;34.50;28.90
51029;DHT22;37054;52.054;8.600;2023-07-20T09:47:04;34.40;30.60
51029;DHT22;37054;52.054;8.600;2023-07-20T09:49:29;34.80;30.90
51029;DHT22;37054;52.054;8.600;2023-07-20T09:51:55;35.30;29.80
51029;DHT22;37054;52.054;8.600;2023-07-20T09:54:21;35.70;28.60
51029;DHT22;37054;52.054;8.600;2023-07-20T09:56:47;36.10;28.40
51029;DHT22;37054;52.054;8.600;2023-07-20T09:59:13;36.60;28.30
51029;DHT22;37054;52.054;8.600;2023-07-20T10:01:40;37.20;27.80
51029;DHT22;37054;52.054;8.600;2023-07-20T10:04:07;37.70;27.30
51029;DHT22;37054;52.054;8.600;2023-07-20T10:06:34;38.30;26.80
51029;DHT22;37054;52.054;8.600;2023-07-20T10:09:02;38.70;25.90
51029;DHT22;37054;52.054;8.600;2023-07-20T10:11:30;39.00;25.50
51029;DHT22;37054;52.054;8.600;2023-07-20T10:13:56;39.40;25.30
51029;DHT22;37054;52.054;8.600;2023-07-20T10:16:34;39.50;23.90
51029;DHT22;37054;52.054;8.600;2023-07-20T10:19:43;39.40;23.60
51029;DHT22;37054;52.054;8.600;2023-07-20T10:21:51;39.40;23.70
51029;DHT22;37054;52.054;8.600;2023-07-20T10:24:21;39.50;23.40
51029;DHT22;37054;52.054;8.600;2023-07-20T10:26:47;39.80;22.60
51029;DHT22;37054;52.054;8.600;2023-07-20T10:29:13;40.00;20.80
51029;DHT22;37054;52.054;8.600;2023-07-20T10:31:40;39.50;19.80
51029;DHT22;37054;52.054;8.600;2023-07-20T10:34:05;38.60;19.10
51029;DHT22;37054;52.054;8.600;2023-07-20T10:36:31;37.80;19.90
51029;DHT22;37054;52.054;8.600;2023-07-20T10:38:56;37.70;21.30
51029;DHT22;37054;52.054;8.600;2023-07-20T10:43:50;38.20;20.70
51029;DHT22;37054;52.054;8.600;2023-07-20T10:46:36;38.40;20.80
51029;DHT22;37054;52.054;8.600;2023-07-20T10:49:07;38.80;21.20
51029;DHT22;37054;52.054;8.600;2023-07-20T10:51:40;39.20;20.40
51029;DHT22;37054;52.054;8.600;2023-07-20T10:54:33;39.60;20.50
51029;DHT22;37054;52.054;8.600;2023-07-20T10:56:55;39.90;20.20
51029;DHT22;37054;52.054;8.600;2023-07-20T11:01:49;40.50;19.90
51029;DHT22;37054;52.054;8.600;2023-07-20T11:04:16;40.80;19.70
51029;DHT22;37054;52.054;8.600;2023-07-20T11:06:44;40.80;19.20
51029;DHT22;37054;52.054;8.600;2023-07-20T11:09:11;40.80;18.70
51029;DHT22;37054;52.054;8.600;2023-07-20T11:11:39;40.80;18.30
51029;DHT22;37054;52.054;8.600;2023-07-20T11:14:06;40.70;18.80
51029;DHT22;37054;52.054;8.600;2023-07-20T11:16:33;40.60;18.90
51029;DHT22;37054;52.054;8.600;2023-07-20T11:18:59;40.30;18.80
51029;DHT22;37054;52.054;8.600;2023-07-20T11:21:24;39.80;19.00
51029;DHT22;37054;52.054;8.600;2023-07-20T11:23:51;39.20;19.20
51029;DHT22;37054;52.054;8.600;2023-07-20T11:26:17;38.70;18.60
51029;DHT22;37054;52.054;8.600;2023-07-20T11:28:48;37.90;18.30
51029;DHT22;37054;52.054;8.600;2023-07-20T11:31:14;37.30;19.60
51029;DHT22;37054;52.054;8.600;2023-07-20T11:33:41;37.30;20.60
51029;DHT22;37054;52.054;8.600;2023-07-20T11:36:08;37.40;20.70
51029;DHT22;37054;52.054;8.600;2023-07-20T11:38:33;37.40;20.60
51029;DHT22;37054;52.054;8.600;2023-07-20T11:40:59;37.30;20.70
51029;DHT22;37054;52.054;8.600;2023-07-20T11:43:24;37.30;20.90
51029;DHT22;37054;52.054;8.600;2023-07-20T11:45:51;37.30;20.80
51029;DHT22;37054;52.054;8.600;2023-07-20T11:48:17;37.20;21.00
51029;DHT22;37054;52.054;8.600;2023-07-20T11:50:42;36.90;21.00
51029;DHT22;37054;52.054;8.600;2023-07-20T11:53:08;36.70;21.30
51029;DHT22;37054;52.054;8.600;2023-07-20T11:55:33;36.80;21.80
51029;DHT22;37054;52.054;8.600;2023-07-20T11:58:05;37.00;22.20
51029;DHT22;37054;52.054;8.600;2023-07-20T12:00:34;37.40;22.30
51029;DHT22;37054;52.054;8.600;2023-07-20T12:03:00;37.60;22.00
51029;DHT22;37054;52.054;8.600;2023-07-20T12:05:25;37.50;21.20
51029;DHT22;37054;52.054;8.600;2023-07-20T12:07:51;37.30;21.20
51029;DHT22;37054;52.054;8.600;2023-07-20T12:10:23;37.20;21.10
51029;DHT22;37054;52.054;8.600;2023-07-20T12:12:48;37.20;21.20
51029;DHT22;37054;52.054;8.600;2023-07-20T12:15:17;37.20;21.00
51029;DHT22;37054;52.054;8.600;2023-07-20T12:17:43;37.20;21.10
51029;DHT22;37054;52.054;8.600;2023-07-20T12:20:09;37.50;21.10
51029;DHT22;37054;52.054;8.600;2023-07-20T12:22:38;37.60;20.90
51029;DHT22;37054;52.054;8.600;2023-07-20T12:25:07;37.60;20.70
51029;DHT22;37054;52.054;8.600;2023-07-20T12:27:35;37.60;20.70
51029;DHT22;37054;52.054;8.600;2023-07-20T12:30:01;37.70;20.50
51029;DHT22;37054;52.054;8.600;2023-07-20T12:32:26;37.80;20.30
51029;DHT22;37054;52.054;8.600;2023-07-20T12:34:51;38.00;19.70
51029;DHT22;37054;52.054;8.600;2023-07-20T12:37:20;38.10;19.90
51029;DHT22;37054;52.054;8.600;2023-07-20T12:39:45;37.90;19.70
51029;DHT22;37054;52.054;8.600;2023-07-20T12:42:12;37.80;19.60
51029;DHT22;37054;52.054;8.600;2023-07-20T12:44:40;37.60;19.70
51029;DHT22;37054;52.054;8.600;2023-07-20T12:47:05;37.60;19.80
51029;DHT22;37054;52.054;8.600;2023-07-20T12:49:31;37.50;20.00
51029;DHT22;37054;52.054;8.600;2023-07-20T12:51:56;37.60;20.00
51029;DHT22;37054;52.054;8.600;2023-07-20T12:54:22;37.80;20.00
51029;DHT22;37054;52.054;8.600;2023-07-20T12:56:47;38.00;19.60
51029;DHT22;37054;52.054;8.600;2023-07-20T12:59:13;38.30;19.80
51029;DHT22;37054;52.054;8.600;2023-07-20T13:01:38;38.40;19.50
51029;DHT22;37054;52.054;8.600;2023-07-20T13:04:06;38.50;19.20
51029;DHT22;37054;52.054;8.600;2023-07-20T13:06:34;38.70;19.20
51029;DHT22;37054;52.054;8.600;2023-07-20T13:09:00;38.70;19.10
51029;DHT22;37054;52.054;8.600;2023-07-20T13:11:25;38.90;19.40
51029;DHT22;37054;52.054;8.600;2023-07-20T13:13:51;39.00;19.20
51029;DHT22;37054;52.054;8.600;2023-07-20T13:16:17;39.00;18.80
51029;DHT22;37054;52.054;8.600;2023-07-20T13:18:42;38.80;17.70
51029;DHT22;37054;52.054;8.600;2023-07-20T13:21:08;38.30;18.10
51029;DHT22;37054;52.054;8.600;2023-07-20T13:23:36;37.70;18.40
51029;DHT22;37054;52.054;8.600;2023-07-20T13:26:02;37.00;18.70
51029;DHT22;37054;52.054;8.600;2023-07-20T13:28:28;36.40;19.30
51029;DHT22;37054;52.054;8.600;2023-07-20T13:30:53;36.00;19.60
51029;DHT22;37054;52.054;8.600;2023-07-20T13:33:19;35.90;20.30
51029;DHT22;37054;52.054;8.600;2023-07-20T13:35:44;35.90;20.20
51029;DHT22;37054;52.054;8.600;2023-07-20T13:38:10;35.80;20.30
51029;DHT22;37054;52.054;8.600;2023-07-20T13:40:35;35.60;20.20
51029;DHT22;37054;52.054;8.600;2023-07-20T13:43:02;35.30;20.10
51029;DHT22;37054;52.054;8.600;2023-07-20T13:45:27;35.20;20.40
51029;DHT22;37054;52.054;8.600;2023-07-20T13:47:53;35.10;20.70
51029;DHT22;37054;52.054;8.600;2023-07-20T13:50:18;34.90;21.00
51029;DHT22;37054;52.054;8.600;2023-07-20T13:52:44;34.70;21.00
51029;DHT22;37054;52.054;8.600;2023-07-20T13:55:09;34.40;21.40
51029;DHT22;37054;52.054;8.600;2023-07-20T13:57:35;34.30;21.60
51029;DHT22;37054;52.054;8.600;2023-07-20T14:00:00;34.00;21.60
51029;DHT22;37054;52.054;8.600;2023-07-20T14:02:27;33.70;21.90
51029;DHT22;37054;52.054;8.600;2023-07-20T14:04:52;33.50;22.20
51029;DHT22;37054;52.054;8.600;2023-07-20T14:07:21;33.50;22.60
51029;DHT22;37054;52.054;8.600;2023-07-20T14:09:46;33.50;22.60
51029;DHT22;37054;52.054;8.600;2023-07-20T14:12:12;33.30;22.30
51029;DHT22;37054;52.054;8.600;2023-07-20T14:14:39;33.00;22.80
51029;DHT22;37054;52.054;8.600;2023-07-20T14:17:06;32.50;23.50
51029;DHT22;37054;52.054;8.600;2023-07-20T14:19:32;32.20;24.10
51029;DHT22;37054;52.054;8.600;2023-07-20T14:21:57;31.60;24.30
51029;DHT22;37054;52.054;8.600;2023-07-20T14:24:25;31.10;24.90
51029;DHT22;37054;52.054;8.600;2023-07-20T14:26:50;30.70;25.40
51029;DHT22;37054;52.054;8.600;2023-07-20T14:29:16;30.40;25.80
51029;DHT22;37054;52.054;8.600;2023-07-20T14:31:43;30.10;26.30
51029;DHT22;37054;52.054;8.600;2023-07-20T14:34:09;30.10;26.60
51029;DHT22;37054;52.054;8.600;2023-07-20T14:36:34;30.40;26.60
51029;DHT22;37054;52.054;8.600;2023-07-20T14:39:00;30.60;26.60
51029;DHT22;37054;52.054;8.600;2023-07-20T14:41:25;30.60;26.60
51029;DHT22;37054;52.054;8.600;2023-07-20T14:43:51;30.30;26.70
51029;DHT22;37054;52.054;8.600;2023-07-20T14:46:17;29.90;27.20
51029;DHT22;37054;52.054;8.600;2023-07-20T14:48:42;29.60;27.80
51029;DHT22;37054;52.054;8.600;2023-07-20T14:51:08;29.30;28.40
51029;DHT22;37054;52.054;8.600;2023-07-20T14:53:33;29.20;28.70
51029;DHT22;37054;52.054;8.600;2023-07-20T14:56:02;29.10;29.10
51029;DHT22;37054;52.054;8.600;2023-07-20T14:58:29;29.00;29.50
51029;DHT22;37054;52.054;8.600;2023-07-20T15:00:54;28.90;29.80
51029;DHT22;37054;52.054;8.600;2023-07-20T15:03:20;28.80;30.40
51029;DHT22;37054;52.054;8.600;2023-07-20T15:05:45;28.70;30.60
51029;DHT22;37054;52.054;8.600;2023-07-20T15:08:11;28.70;30.60
51029;DHT22;37054;52.054;8.600;2023-07-20T15:10:36;28.80;30.60
51029;DHT22;37054;52.054;8.600;2023-07-20T15:13:02;28.80;30.50
51029;DHT22;37054;52.054;8.600;2023-07-20T15:15:28;28.80;30.40
51029;DHT22;37054;52.054;8.600;2023-07-20T15:17:53;28.80;30.20
51029;DHT22;37054;52.054;8.600;2023-07-20T15:20:19;28.80;29.80
51029;DHT22;37054;52.054;8.600;2023-07-20T15:22:45;28.70;29.80
51029;DHT22;37054;52.054;8.600;2023-07-20T15:25:10;28.50;30.00
51029;DHT22;37054;52.054;8.600;2023-07-20T15:27:37;28.50;30.00
51029;DHT22;37054;52.054;8.600;2023-07-20T15:30:02;28.50;30.00
51029;DHT22;37054;52.054;8.600;2023-07-20T15:32:28;28.50;30.00
51029;DHT22;37054;52.054;8.600;2023-07-20T15:34:54;28.40;30.10
51029;DHT22;37054;52.054;8.600;2023-07-20T15:37:19;28.30;29.90
51029;DHT22;37054;52.054;8.600;2023-07-20T15:39:48;28.20;29.90